This is the latest recevied weather packets stored in our database for station/object DH8TOM-2. If no packets are shown the sender has not sent any weather packets the latest 1 day(s).
| Time | Temp. | Humidity | Pressure | Rain* | Wind** | Luminosity | Snow |
|---|---|---|---|---|---|---|---|
| 1777974421 | 20.56° C | 62% | 1005.8 hPa | 0 mm | 0.89 m/s, 311° | - | - |
| 1777974120 | 21.11° C | 59% | 1005.9 hPa | 0 mm | 0.45 m/s, 161° | - | - |
| 1777973818 | 21.11° C | 59% | 1005.9 hPa | 0 mm | 0.45 m/s, 161° | - | - |
| 1777973517 | 21.67° C | 60% | 1005.9 hPa | 0 mm | 0.45 m/s, 90° | - | - |
| 1777973216 | 21.67° C | 60% | 1005.9 hPa | 0 mm | 0.45 m/s, 90° | - | - |
| 1777972916 | 21.67° C | 61% | 1006 hPa | 0 mm | 0.45 m/s, 120° | - | - |
| 1777972616 | 21.67° C | 61% | 1006 hPa | 0 mm | 0.45 m/s, 120° | - | - |
| 1777972314 | 21.67° C | 62% | 1006.2 hPa | 0 mm | 0.89 m/s, 156° | - | - |
| 1777972012 | 21.67° C | 62% | 1006.2 hPa | 0 mm | 0.89 m/s, 156° | - | - |
| 1777971713 | 20.56° C | 65% | 1006.3 hPa | 0 mm | 0.45 m/s, 330° | - | - |
| 1777971411 | 20.56° C | 65% | 1006.3 hPa | 0 mm | 0.45 m/s, 330° | - | - |
| 1777971110 | 20.56° C | 63% | 1006.3 hPa | 0 mm | 0.45 m/s, 161° | - | - |
| 1777970810 | 20.56° C | 63% | 1006.3 hPa | 0 mm | 0.45 m/s, 161° | - | - |
| 1777970516 | 20° C | 63% | 1006.4 hPa | 0 mm | 0.45 m/s, 149° | - | - |
| 1777970207 | 20° C | 63% | 1006.4 hPa | 0 mm | 0.45 m/s, 149° | - | - |
| 1777969906 | 20° C | 65% | 1006.5 hPa | 0 mm | 0.45 m/s, 90° | - | - |
| 1777969604 | 20° C | 65% | 1006.5 hPa | 0 mm | 0.45 m/s, 90° | - | - |
| 1777969304 | 19.44° C | 68% | 1006.5 hPa | 0 mm | 0.45 m/s, 127° | - | - |
| 1777969002 | 19.44° C | 68% | 1006.5 hPa | 0 mm | 0.45 m/s, 127° | - | - |
| 1777968704 | 18.33° C | 70% | 1006.7 hPa | 0 mm | 0.45 m/s, 122° | - | - |
| 1777968400 | 18.33° C | 70% | 1006.7 hPa | 0 mm | 0.45 m/s, 122° | - | - |
| 1777968101 | 17.78° C | 71% | 1006.8 hPa | 0 mm | 0.45 m/s, 180° | - | - |
| 1777967800 | 17.78° C | 71% | 1006.8 hPa | 0 mm | 0.45 m/s, 180° | - | - |
| 1777967498 | 17.78° C | 74% | 1006.9 hPa | 0 mm | 0.45 m/s, 152° | - | - |
| 1777967197 | 17.78° C | 74% | 1006.9 hPa | 0 mm | 0.45 m/s, 152° | - | - |
* Rain latest hour (hover to see other rain measurements)
** Current wind speed in m/s (hover to see current wind gust speed)